Joseph City, Arizona
Current Conditions -  °F | °C
As of 11:56 PM on Sunday 23 Nov 2014 (Local Time) from KINW Reporting Station
Clear Clear  
Wind Chill: -6°   Ceiling: Unl
Heat Index: -6°   Visibility: 10mi
Dew Point: -21°   Wind: 0mph
Humidity: 30%   Direction: NA
Pressure: 30.21"   Gusts: NA
Location:  34.96°N, 110.34°W
Report Text: KINW 240656Z AUTO 00000KT 10SM CLR M06/M21 A3021 RMK AO2 SLP237 T10561206 401111061
Loading
Personal Weather Stations






























Interactive Weather Map New forecast layout! Learn more

10-Day Weather Forecast

Advertisements
Track Severe Weather on mobile